Cortland, IL

2:41 PM CDT on July 24, 2016 (GMT -0500)
De Kalb Taylor Municipal

Weather History for KDKB - June, 2013

Change the Weather History Date:

Thursday, June 20, 2013

  Actual Average (KARR) Record (KARR)
Temperature  
Mean Temperature 72 °F 70 °F  
Max Temperature 87 °F 82 °F 93 °F (2012)
Min Temperature 56 °F 59 °F 47 °F (2004)
Degree Days  
Heating Degree Days 0 1  
Month to date heating degree days 37  
Since 1 June heating degree days 37  
Since 1 July heating degree days 6771  
Cooling Degree Days 6 6  
Month to date cooling degree days 88  
Year to date cooling degree days 129  
Since 1 June cooling degree days 88  
Growing Degree Days 22 (Base 50)    
Moisture  
Dew Point 57 °F    
Average Humidity 56    
Maximum Humidity 75    
Minimum Humidity 38    
Precipitation  
Precipitation 0.00 in 0.09 in 0.95 in (2015)
Month to date precipitation 3.03  
Year to date precipitation 15.91  
Sea Level Pressure  
Sea Level Pressure 30.13 in    
Wind  
Wind Speed 6 mph (SE)    
Max Wind Speed 14 mph    
Max Gust Speed -    
Visibility 10 miles    
Events      
T = Trace of Precipitation, MM = Missing Value Source: NWS Daily Summary

Daily Weather History Graph

Daily Weather History Graph

Search for Another Location

Airport or City:

Trip Planner

Search our weather history database for the weather conditions in past years. The results will help you decide how hot, cold, wet, or windy it might be!

Date:

Astronomy

Jun. 20, 2013 Rise Set
Actual Time 5:19 AM CDT 8:33 PM CDT
Civil Twilight 4:44 AM CDT 9:07 PM CDT
Nautical Twilight 4:00 AM CDT 9:52 PM CDT
Astronomical Twilight 3:06 AM CDT 10:46 PM CDT
Moon 5:34 PM CDT (6/20) 2:48 AM CDT (6/20)
Length of Visible Light 16h 23m
Length of Day
15h 14m
Waxing Gibbous, 89% of the Moon is Illuminated
Jun 20
Waxing Gibbous
Jun 23
Full
Jun 29
Last Quarter
Jul 8
New
Jul 15
First Quarter

Hourly Weather History & Observations

Time (CDT) Temp. Heat Index Dew Point Humidity Pressure Visibility Wind Dir Wind Speed Gust Speed Precip Events Conditions
12:15 AM 60.1 °F - 47.3 °F 63% 30.13 in 10.0 mi East 4.6 mph - N/A   Clear
12:35 AM 59.7 °F - 47.1 °F 63% 30.12 in 10.0 mi East 4.6 mph - N/A   Clear
12:55 AM 59.9 °F - 46.0 °F 60% 30.13 in 10.0 mi ESE 5.8 mph - N/A   Clear
1:15 AM 60.8 °F - 44.6 °F 55% 30.13 in 10.0 mi ESE 5.8 mph - N/A   Clear
1:35 AM 60.8 °F - 43.9 °F 54% 30.13 in 10.0 mi ESE 5.8 mph - N/A   Clear
2:15 AM 58.6 °F - 46.0 °F 63% 30.13 in 10.0 mi East 4.6 mph - N/A   Clear
2:35 AM 59.0 °F - 45.0 °F 60% 30.13 in 10.0 mi East 4.6 mph - N/A   Clear
2:55 AM 58.5 °F - 45.5 °F 62% 30.13 in 10.0 mi SE 3.5 mph - N/A   Clear
3:15 AM 59.2 °F - 45.0 °F 59% 30.13 in 10.0 mi East 4.6 mph - N/A   Clear
3:35 AM 58.1 °F - 45.9 °F 64% 30.13 in 10.0 mi East 3.5 mph - N/A   Clear
3:55 AM 56.7 °F - 45.7 °F 67% 30.13 in 10.0 mi East 4.6 mph - N/A   Clear
4:15 AM 58.1 °F - 45.5 °F 63% 30.13 in 10.0 mi ESE 4.6 mph - N/A   Clear
4:35 AM 58.5 °F - 45.5 °F 62% 30.13 in 10.0 mi ESE 5.8 mph - N/A   Clear
4:55 AM 58.1 °F - 45.9 °F 64% 30.14 in 10.0 mi East 3.5 mph - N/A   Clear
5:15 AM 57.4 °F - 46.0 °F 66% 30.14 in 10.0 mi East 4.6 mph - N/A   Clear
5:35 AM 57.2 °F - 46.4 °F 67% 30.14 in 10.0 mi East 5.8 mph - N/A   Clear
5:55 AM 58.1 °F - 47.3 °F 67% 30.15 in 10.0 mi East 4.6 mph - N/A   Clear
6:15 AM 59.5 °F - 48.2 °F 66% 30.15 in 10.0 mi East 3.5 mph - N/A   Clear
6:35 AM 60.8 °F - 49.6 °F 67% 30.15 in 10.0 mi East 4.6 mph - N/A   Clear
6:55 AM 62.6 °F - 51.1 °F 66% 30.15 in 10.0 mi East 3.5 mph - N/A   Clear
7:35 AM 66.6 °F - 54.7 °F 66% 30.16 in 10.0 mi ESE 4.6 mph - N/A   Clear
7:55 AM 69.3 °F - 55.6 °F 62% 30.16 in 10.0 mi SE 5.8 mph - N/A   Clear
8:15 AM 70.7 °F - 56.8 °F 61% 30.16 in 10.0 mi SE 6.9 mph - N/A   Clear
8:35 AM 72.9 °F - 58.5 °F 60% 30.16 in 10.0 mi SE 6.9 mph - N/A   Clear
8:55 AM 73.9 °F - 59.7 °F 61% 30.16 in 10.0 mi SE 9.2 mph - N/A   Clear
9:15 AM 74.3 °F - 60.4 °F 62% 30.16 in 10.0 mi SE 6.9 mph - N/A   Clear
9:35 AM 75.7 °F - 62.1 °F 62% 30.16 in 10.0 mi SSE 8.1 mph - N/A   Clear
9:55 AM 76.6 °F - 63.7 °F 64% 30.17 in 10.0 mi SSE 6.9 mph - N/A   Clear
10:15 AM 78.1 °F - 64.8 °F 63% 30.16 in 10.0 mi SSE 4.6 mph - N/A   Clear
10:35 AM 78.8 °F - 65.3 °F 63% 30.16 in 10.0 mi SE 6.9 mph - N/A   Clear
11:15 AM 80.8 °F 82.6 °F 65.1 °F 59% 30.16 in 10.0 mi SE 5.8 mph - N/A   Clear
11:35 AM 81.3 °F 82.9 °F 64.4 °F 56% 30.16 in 10.0 mi SE 6.9 mph - N/A   Clear
11:55 AM 82.0 °F 83.6 °F 64.2 °F 55% 30.16 in 10.0 mi SSE 8.1 mph - N/A   Clear
12:15 PM 82.4 °F 83.4 °F 62.6 °F 51% 30.16 in 10.0 mi SE 5.8 mph - N/A   Scattered Clouds
12:35 PM 83.7 °F 84.9 °F 63.5 °F 51% 30.16 in 10.0 mi South 6.9 mph - N/A   Scattered Clouds
12:55 PM 84.6 °F 85.0 °F 61.9 °F 46% 30.15 in 10.0 mi South 5.8 mph - N/A   Clear
1:15 PM 84.9 °F 85.4 °F 61.9 °F 46% 30.15 in 10.0 mi South 4.6 mph - N/A   Clear
1:35 PM 84.0 °F 84.4 °F 61.2 °F 46% 30.14 in 10.0 mi SSW 3.5 mph - N/A   Scattered Clouds
2:15 PM 85.3 °F 85.2 °F 60.6 °F 43% 30.12 in 10.0 mi SSE 6.9 mph - N/A   Clear
2:35 PM 84.6 °F 84.8 °F 61.0 °F 45% 30.12 in 10.0 mi South 6.9 mph - N/A   Clear
2:55 PM 86.7 °F 87.3 °F 62.4 °F 44% 30.12 in 10.0 mi SSE 9.2 mph - N/A   Scattered Clouds
3:15 PM 86.2 °F 86.3 °F 61.0 °F 43% 30.12 in 10.0 mi South 9.2 mph - N/A   Clear
3:35 PM 84.6 °F 84.4 °F 59.9 °F 43% 30.11 in 10.0 mi SSE 9.2 mph - N/A   Scattered Clouds
3:55 PM 87.3 °F 87.5 °F 61.5 °F 42% 30.11 in 10.0 mi SSE 9.2 mph - N/A   Clear
4:15 PM 87.3 °F 87.5 °F 61.5 °F 42% 30.10 in 10.0 mi SE 9.2 mph - N/A   Scattered Clouds
4:35 PM 87.6 °F 87.7 °F 61.2 °F 41% 30.10 in 10.0 mi SE 10.4 mph - N/A   Scattered Clouds
5:15 PM 87.1 °F 86.5 °F 59.5 °F 39% 30.09 in 10.0 mi South 8.1 mph - N/A   Clear
5:35 PM 86.4 °F 86.1 °F 59.9 °F 41% 30.09 in 10.0 mi South 6.9 mph - N/A   Clear
5:55 PM 86.4 °F 85.4 °F 58.1 °F 38% 30.09 in 10.0 mi SSE 13.8 mph - N/A   Clear
6:15 PM 86.0 °F 85.2 °F 58.3 °F 39% 30.08 in 10.0 mi SSE 9.2 mph - N/A   Clear
6:35 PM 85.8 °F 84.8 °F 57.6 °F 38% 30.07 in 10.0 mi SSE 10.4 mph - N/A   Clear
6:55 PM 85.1 °F 84.4 °F 58.3 °F 40% 30.07 in 10.0 mi SSE 9.2 mph - N/A   Clear
7:15 PM 84.6 °F 84.2 °F 58.8 °F 42% 30.07 in 10.0 mi SSE 8.1 mph - N/A   Clear
7:35 PM 83.5 °F 83.4 °F 59.4 °F 44% 30.07 in 10.0 mi SSE 6.9 mph - N/A   Clear
7:55 PM 81.9 °F 82.3 °F 60.3 °F 48% 30.08 in 10.0 mi SE 4.6 mph - N/A   Clear
8:15 PM 80.2 °F 81.0 °F 60.1 °F 50% 30.08 in 10.0 mi SE 6.9 mph - N/A   Clear
8:35 PM 79.2 °F - 60.8 °F 53% 30.08 in 10.0 mi SE 5.8 mph - N/A   Clear
8:55 PM 78.3 °F - 60.8 °F 55% 30.08 in 10.0 mi SE 6.9 mph - N/A   Clear
9:35 PM 77.0 °F - 61.0 °F 58% 30.09 in 10.0 mi ESE 6.9 mph - N/A   Clear
9:55 PM 73.9 °F - 62.1 °F 66% 30.10 in 10.0 mi East 6.9 mph - N/A   Clear
10:15 PM 73.0 °F - 63.0 °F 71% 30.10 in 10.0 mi East 6.9 mph - N/A   Clear
10:35 PM 71.8 °F - 63.1 °F 74% 30.11 in 10.0 mi ESE 5.8 mph - N/A   Scattered Clouds
10:55 PM 72.0 °F - 63.5 °F 75% 30.11 in 10.0 mi ESE 8.1 mph - N/A   Clear
11:15 PM 73.0 °F - 64.0 °F 73% 30.11 in 10.0 mi ESE 6.9 mph - N/A   Clear
11:35 PM 73.0 °F - 63.9 °F 73% 30.12 in 10.0 mi ESE 5.8 mph - N/A   Clear
11:55 PM 71.8 °F - 63.5 °F 75% 30.12 in 10.0 mi SE 3.5 mph - N/A   Clear